Time;durP1;ratioP1;P1;durP2;ratioP2;P2;SDS_P1;SDS_P2;PMS_P1;PMS_P2;Temp;Humidity;BMP_temperature;BMP_pressure;BME280_temperature;BME280_humidity;BME280_pressure;Samples;Min_cycle;Max_cycle;Signal;HPM_P1;HPM_P2
2022/08/26 00:01:15;;;;;;;10.20;4.28;;;;;;;18.77;74.35;94295.34;5148709;27;20261;-70
2022/08/26 00:03:42;;;;;;;8.95;3.05;;;;;;;18.84;74.13;94291.84;5150445;27;20200;-71
2022/08/26 00:06:09;;;;;;;15.18;3.35;;;;;;;18.90;74.35;94288.34;5144049;27;20229;-70
2022/08/26 00:08:37;;;;;;;10.38;2.50;;;;;;;18.81;78.28;94290.66;5134069;27;20196;-70
2022/08/26 00:11:05;;;;;;;14.80;3.95;;;;;;;18.75;77.78;94289.47;5135559;27;20197;-71
2022/08/26 00:13:32;;;;;;;9.40;3.75;;;;;;;18.67;78.51;94290.63;5140939;27;20208;-70
2022/08/26 00:15:59;;;;;;;16.10;3.13;;;;;;;18.63;79.31;94287.06;5133849;27;20258;-70
2022/08/26 00:18:26;;;;;;;21.30;3.03;;;;;;;18.58;78.95;94298.41;5144184;27;20208;-70
2022/08/26 00:20:53;;;;;;;10.13;3.22;;;;;;;18.61;78.53;94286.69;5143798;27;20609;-71
2022/08/26 00:23:21;;;;;;;10.50;3.05;;;;;;;18.60;78.68;94282.34;5133549;27;20694;-70
2022/08/26 00:25:49;;;;;;;13.23;3.70;;;;;;;18.61;78.63;94286.69;5137131;27;20341;-70
2022/08/26 00:28:16;;;;;;;4.20;2.55;;;;;;;18.67;79.39;94282.41;5139129;27;20201;-71
2022/08/26 00:30:46;;;;;;;6.82;3.13;;;;;;;18.56;78.89;94281.56;5134437;27;20204;-70
2022/08/26 00:33:13;;;;;;;13.38;3.63;;;;;;;18.67;77.36;94276.91;5133161;27;20249;-71
2022/08/26 00:35:41;;;;;;;17.05;3.75;;;;;;;18.73;77.76;94275.34;5136930;27;20272;-70
2022/08/26 00:38:07;;;;;;;10.48;2.30;;;;;;;18.73;76.27;94278.88;5138204;27;20204;-71
2022/08/26 00:40:37;;;;;;;13.50;2.67;;;;;;;18.76;75.35;94271.81;5133476;27;20201;-70
2022/08/26 00:43:06;;;;;;;7.78;2.40;;;;;;;18.67;77.29;94279.66;5133882;27;20246;-70
2022/08/26 00:45:41;;;;;;;11.68;2.85;;;;;;;18.55;77.08;94274.50;5132573;27;20254;-70
2022/08/26 00:48:11;;;;;;;9.35;2.35;;;;;;;18.53;76.99;94274.09;5133560;27;20196;-70
2022/08/26 00:50:41;;;;;;;16.02;3.28;;;;;;;18.50;77.53;94272.09;5136856;27;20246;-70
2022/08/26 00:53:20;;;;;;;11.88;2.97;;;;;;;18.50;76.25;94274.84;5133281;27;20207;-70
2022/08/26 00:55:49;;;;;;;7.45;2.63;;;;;;;18.60;74.89;94283.16;5131141;27;20193;-70
2022/08/26 00:58:18;;;;;;;14.32;2.83;;;;;;;18.69;74.53;94285.53;5140520;27;20213;-70
2022/08/26 01:00:45;;;;;;;15.95;2.95;;;;;;;18.94;70.83;94285.59;5146913;27;20200;-70
2022/08/26 01:03:13;;;;;;;13.10;3.13;;;;;;;18.67;75.93;94280.44;5137387;27;20208;-70
2022/08/26 01:05:40;;;;;;;14.70;3.63;;;;;;;18.83;74.31;94277.34;5135874;27;20232;-70
2022/08/26 01:08:07;;;;;;;14.88;3.50;;;;;;;18.96;74.56;94270.31;5141610;27;20199;-70
2022/08/26 01:10:34;;;;;;;11.63;2.70;;;;;;;18.91;76.43;94269.91;5136058;27;20571;-70
2022/08/26 01:13:05;;;;;;;9.43;2.65;;;;;;;18.94;75.98;94267.16;5140588;27;20281;-70
2022/08/26 01:15:40;;;;;;;12.23;5.03;;;;;;;18.87;76.25;94267.16;5131608;27;20197;-70
2022/08/26 01:18:07;;;;;;;6.78;2.40;;;;;;;18.66;76.56;94267.09;5139444;27;20200;-70
2022/08/26 01:20:41;;;;;;;10.50;3.20;;;;;;;18.72;76.10;94271.06;5137707;27;20254;-70
2022/08/26 01:23:12;;;;;;;12.52;3.35;;;;;;;18.78;78.01;94264.00;5137894;27;20201;-70
2022/08/26 01:25:42;;;;;;;12.15;3.42;;;;;;;18.76;77.59;94269.09;5135344;27;20197;-70
2022/08/26 01:28:16;;;;;;;15.13;2.75;;;;;;;18.65;77.17;94260.03;5140358;27;20189;-69
2022/08/26 01:30:45;;;;;;;5.15;2.22;;;;;;;18.71;76.78;94274.97;5136129;27;20192;-69
2022/08/26 01:33:17;;;;;;;7.75;3.10;;;;;;;18.72;76.50;94263.56;5142143;27;20878;-69
2022/08/26 01:35:45;;;;;;;4.57;2.47;;;;;;;18.74;76.15;94268.69;5137391;27;20205;-69
2022/08/26 01:38:14;;;;;;;5.57;2.75;;;;;;;18.77;76.87;94268.69;5138246;27;20280;-70
2022/08/26 01:40:42;;;;;;;9.05;3.28;;;;;;;18.80;76.00;94267.13;5138284;27;20212;-69
2022/08/26 01:43:15;;;;;;;9.85;3.40;;;;;;;18.86;75.54;94260.09;5136719;27;20203;-69
2022/08/26 01:45:43;;;;;;;10.68;3.03;;;;;;;18.83;75.27;94260.88;5138818;27;20197;-69
2022/08/26 01:48:16;;;;;;;8.55;2.85;;;;;;;18.89;75.16;94262.06;5140117;27;20629;-70
2022/08/26 01:50:44;;;;;;;14.60;3.58;;;;;;;18.93;74.94;94268.34;5143764;27;20266;-70
2022/08/26 01:53:16;;;;;;;13.90;4.05;;;;;;;18.95;75.03;94266.00;5146902;27;21090;-71
2022/08/26 01:55:47;;;;;;;10.40;3.40;;;;;;;18.98;74.36;94262.47;5140322;27;20274;-70
2022/08/26 01:58:20;;;;;;;7.38;2.47;;;;;;;19.04;73.86;94266.41;5143639;27;20255;-69
2022/08/26 02:00:48;;;;;;;14.63;4.50;;;;;;;19.06;73.89;94261.31;5146298;27;20205;-70
2022/08/26 02:03:16;;;;;;;15.73;3.53;;;;;;;19.05;74.08;94270.72;5130902;27;20258;-69
2022/08/26 02:05:44;;;;;;;10.00;3.28;;;;;;;19.08;73.81;94264.44;5131489;27;20537;-69
2022/08/26 02:08:12;;;;;;;10.43;3.50;;;;;;;19.02;74.71;94266.00;5134883;27;20205;-69
2022/08/26 02:10:41;;;;;;;5.78;2.30;;;;;;;18.98;75.12;94261.69;5135296;27;20543;-69
2022/08/26 02:13:08;;;;;;;11.77;3.80;;;;;;;19.00;75.37;94260.09;5138659;27;20255;-69
2022/08/26 02:15:36;;;;;;;10.02;3.20;;;;;;;18.90;78.48;94269.13;5135900;27;20258;-69
2022/08/26 02:18:04;;;;;;;10.00;3.20;;;;;;;18.85;77.63;94269.50;5134683;27;20257;-69
2022/08/26 02:20:31;;;;;;;17.75;5.32;;;;;;;18.87;76.85;94267.16;5135046;27;20613;-70
2022/08/26 02:22:58;;;;;;;13.85;4.30;;;;;;;18.87;77.54;94256.16;5134733;27;20260;-70
2022/08/26 02:25:31;;;;;;;21.45;3.95;;;;;;;18.84;78.51;94256.19;5134664;27;20246;-70
2022/08/26 02:27:59;;;;;;;13.45;3.35;;;;;;;18.77;78.19;94262.44;5137592;27;20961;-70
2022/08/26 02:30:29;;;;;;;11.45;4.63;;;;;;;18.81;77.45;94257.72;5133927;27;20274;-70
2022/08/26 02:32:58;;;;;;;15.63;3.88;;;;;;;18.82;77.74;94253.81;5133964;27;20185;-71
2022/08/26 02:35:26;;;;;;;10.00;3.17;;;;;;;18.88;77.73;94260.47;5134112;27;20547;-70
2022/08/26 02:37:53;;;;;;;10.52;2.80;;;;;;;18.87;77.85;94258.13;5133645;27;20258;-71
2022/08/26 02:40:24;;;;;;;11.20;3.45;;;;;;;18.89;77.32;94259.31;5137153;27;20201;-70
2022/08/26 02:42:51;;;;;;;14.68;3.33;;;;;;;18.89;76.88;94259.31;5141411;27;20196;-70
2022/08/26 02:45:19;;;;;;;12.85;3.47;;;;;;;18.96;77.42;94253.06;5137868;27;20197;-71
2022/08/26 02:47:47;;;;;;;10.02;2.60;;;;;;;19.07;77.34;94264.84;5149214;27;20236;-70
2022/08/26 02:50:14;;;;;;;5.40;2.40;;;;;;;18.97;77.75;94255.41;5143159;27;20253;-70
2022/08/26 02:52:41;;;;;;;6.95;2.55;;;;;;;18.96;77.61;94259.34;5146783;27;20261;-69
2022/08/26 02:55:08;;;;;;;9.95;4.28;;;;;;;18.87;76.66;94255.38;5150531;27;20200;-69
2022/08/26 02:57:35;;;;;;;11.07;3.90;;;;;;;18.99;76.37;94258.56;5146090;27;20217;-70
2022/08/26 03:00:02;;;;;;;13.93;3.72;;;;;;;19.03;76.36;94267.56;5153397;27;20651;-71
2022/08/26 03:02:30;;;;;;;13.68;4.07;;;;;;;19.03;78.73;94270.31;5153483;27;20596;-70
2022/08/26 03:04:57;;;;;;;10.68;3.03;;;;;;;19.02;78.93;94274.25;5140231;27;20196;-69
2022/08/26 03:07:24;;;;;;;7.10;2.72;;;;;;;18.98;78.25;94262.47;5133138;27;20285;-69
2022/08/26 03:09:51;;;;;;;5.75;2.80;;;;;;;18.85;77.55;94269.50;5133881;27;20200;-69
2022/08/26 03:12:19;;;;;;;8.05;3.47;;;;;;;18.75;78.38;94264.75;5133295;27;20368;-70
2022/08/26 03:14:46;;;;;;;8.75;2.60;;;;;;;18.73;77.50;94272.59;5136780;27;20224;-69
2022/08/26 03:17:12;;;;;;;10.10;3.33;;;;;;;18.65;75.78;94262.78;5132889;27;20716;-70
2022/08/26 03:19:41;;;;;;;8.23;2.40;;;;;;;18.65;75.65;94268.28;5133204;27;20197;-69
2022/08/26 03:22:08;;;;;;;17.70;3.08;;;;;;;18.61;75.64;94264.72;5132907;27;20600;-70
2022/08/26 03:24:35;;;;;;;15.10;3.10;;;;;;;18.72;75.27;94260.06;5134870;27;20683;-70
2022/08/26 03:27:02;;;;;;;5.63;2.33;;;;;;;18.80;75.40;94272.63;5152757;27;20662;-70
2022/08/26 03:32:15;;;;;;;13.15;3.33;;;;;;;18.99;74.97;94275.03;5137475;27;20209;-69
2022/08/26 03:34:43;;;;;;;10.77;3.58;;;;;;;19.06;75.37;94266.78;5137830;27;20201;-69
2022/08/26 03:37:10;;;;;;;10.02;3.58;;;;;;;19.06;76.73;94269.53;5138556;27;20205;-70
2022/08/26 03:39:37;;;;;;;17.35;3.45;;;;;;;18.96;77.62;94264.81;5137985;27;20205;-70
2022/08/26 03:42:05;;;;;;;10.15;3.75;;;;;;;18.97;77.06;94260.91;5137851;27;21010;-70
2022/08/26 03:44:31;;;;;;;7.20;2.75;;;;;;;18.97;76.49;94260.13;5136428;27;20197;-69
2022/08/26 03:46:58;;;;;;;11.25;3.20;;;;;;;18.92;76.86;94269.53;5144219;27;20823;-70
2022/08/26 03:49:25;;;;;;;6.45;2.80;;;;;;;18.94;76.39;94266.38;5141370;27;20196;-70
2022/08/26 03:51:53;;;;;;;11.60;3.00;;;;;;;19.04;76.51;94260.91;5139663;27;20347;-70
2022/08/26 03:54:20;;;;;;;9.32;2.92;;;;;;;19.07;76.40;94264.84;5136347;27;20201;-70
2022/08/26 03:56:47;;;;;;;11.95;3.15;;;;;;;19.12;76.48;94262.50;5135727;27;20221;-70
2022/08/26 03:59:14;;;;;;;12.70;3.40;;;;;;;19.17;74.62;94264.06;5149991;27;20283;-70
2022/08/26 04:01:41;;;;;;;34.05;16.15;;;;;;;19.23;74.69;94256.22;5149899;27;20207;-70
2022/08/26 04:04:07;;;;;;;17.33;3.35;;;;;;;19.36;74.32;94260.16;5140795;27;20200;-69
2022/08/26 04:06:36;;;;;;;18.02;4.28;;;;;;;19.35;72.85;94264.06;5133214;27;20419;-69
2022/08/26 04:09:08;;;;;;;11.90;3.30;;;;;;;19.28;73.36;94259.34;5133650;27;20203;-70
2022/08/26 04:11:38;;;;;;;16.85;3.45;;;;;;;19.46;72.87;94260.16;5149659;27;20322;-70
2022/08/26 04:14:08;;;;;;;12.65;4.18;;;;;;;19.60;73.11;94255.84;5139328;27;20192;-70
2022/08/26 04:16:35;;;;;;;10.38;3.33;;;;;;;19.67;74.09;94258.59;5150829;27;20200;-69
2022/08/26 04:19:02;;;;;;;13.70;3.60;;;;;;;19.68;74.20;94255.44;5139166;27;20254;-71
2022/08/26 04:21:30;;;;;;;18.88;3.10;;;;;;;19.62;74.43;94251.53;5133502;27;20664;-69
2022/08/26 04:23:56;;;;;;;4.20;2.67;;;;;;;19.61;74.39;94254.69;5133123;27;20723;-69
2022/08/26 04:26:25;;;;;;;12.48;3.05;;;;;;;19.43;74.56;94251.91;5133615;27;20675;-70
2022/08/26 04:28:54;;;;;;;4.70;2.50;;;;;;;19.44;74.30;94250.72;5132430;27;20821;-70
2022/08/26 04:31:21;;;;;;;11.23;2.95;;;;;;;19.51;73.94;94261.75;5144591;27;20204;-71
2022/08/26 04:33:49;;;;;;;8.95;2.65;;;;;;;19.56;73.97;94261.34;5146144;27;20197;-70
2022/08/26 04:36:18;;;;;;;13.65;2.88;;;;;;;19.48;73.83;94251.53;5136225;27;20284;-71
2022/08/26 04:38:45;;;;;;;15.05;3.40;;;;;;;19.67;72.58;94253.13;5136527;27;20201;-71
2022/08/26 04:41:12;;;;;;;12.23;2.88;;;;;;;19.83;72.07;94251.50;5145536;27;20656;-71
2022/08/26 04:43:40;;;;;;;8.70;2.80;;;;;;;20.06;71.70;94258.53;5138063;27;20205;-71
2022/08/26 04:46:10;;;;;;;16.08;3.58;;;;;;;20.12;71.21;94262.44;5141679;27;20196;-71
2022/08/26 04:48:37;;;;;;;10.43;2.83;;;;;;;20.28;70.28;94260.03;5138101;27;20232;-71
2022/08/26 04:51:04;;;;;;;13.00;3.28;;;;;;;20.34;69.50;94263.97;5140863;27;20614;-71
2022/08/26 04:53:31;;;;;;;14.27;3.50;;;;;;;20.39;69.50;94255.31;5139786;27;20235;-70
2022/08/26 04:55:58;;;;;;;20.40;3.47;;;;;;;20.40;69.87;94261.59;5136456;27;20209;-71
2022/08/26 04:58:25;;;;;;;11.27;3.35;;;;;;;20.46;69.36;94254.50;5139089;27;20217;-70
2022/08/26 05:00:56;;;;;;;7.63;2.72;;;;;;;20.70;69.40;94263.81;5142383;27;20624;-70
2022/08/26 05:03:23;;;;;;;14.18;3.80;;;;;;;20.96;69.47;94259.75;5151367;27;20276;-70
2022/08/26 05:05:50;;;;;;;11.45;3.33;;;;;;;21.19;68.92;94258.03;5152226;27;20586;-70
2022/08/26 05:08:19;;;;;;;11.57;4.10;;;;;;;21.17;69.13;94260.41;5151954;27;20228;-70
2022/08/26 05:10:48;;;;;;;5.32;2.47;;;;;;;21.37;68.96;94255.16;5152342;27;20196;-70
2022/08/26 05:13:18;;;;;;;9.38;3.67;;;;;;;21.43;67.85;94255.53;5146534;27;20228;-70
2022/08/26 05:15:46;;;;;;;22.92;3.30;;;;;;;21.35;67.13;94265.81;5131564;27;20262;-70
2022/08/26 05:18:16;;;;;;;13.10;3.60;;;;;;;21.48;66.55;94264.13;5131337;27;20261;-70
2022/08/26 05:20:45;;;;;;;20.90;4.40;;;;;;;21.47;66.28;94257.03;5141679;27;20252;-70
2022/08/26 05:23:13;;;;;;;18.98;3.70;;;;;;;21.89;64.62;94258.66;5148157;27;20634;-70
2022/08/26 05:25:41;;;;;;;21.88;6.00;;;;;;;22.22;64.85;94264.66;5131232;27;20204;-70
2022/08/26 05:28:08;;;;;;;17.60;4.40;;;;;;;22.28;64.21;94271.28;5135070;27;20720;-70
2022/08/26 05:30:36;;;;;;;14.15;3.17;;;;;;;22.48;64.07;94265.94;5137911;27;20605;-70
2022/08/26 05:33:04;;;;;;;15.07;3.85;;;;;;;22.47;62.57;94265.16;5136897;27;20200;-69
2022/08/26 05:35:33;;;;;;;16.73;4.53;;;;;;;22.47;63.26;94273.44;5136394;27;20205;-69
2022/08/26 05:38:00;;;;;;;18.42;4.55;;;;;;;22.21;63.09;94265.84;5135345;27;20257;-70
2022/08/26 05:40:30;;;;;;;18.90;4.97;;;;;;;22.42;63.57;94270.34;5136848;27;20259;-71
2022/08/26 05:42:58;;;;;;;16.10;3.45;;;;;;;22.59;63.59;94272.91;5142381;27;20200;-71
2022/08/26 05:45:26;;;;;;;17.35;4.43;;;;;;;22.50;63.20;94278.16;5147646;27;20197;-69
2022/08/26 05:47:53;;;;;;;19.02;4.50;;;;;;;22.35;63.06;94273.97;5145465;27;20707;-71
2022/08/26 05:50:21;;;;;;;18.25;5.15;;;;;;;22.00;63.82;94271.59;5147059;27;20260;-71
2022/08/26 05:52:50;;;;;;;18.40;3.67;;;;;;;22.06;64.42;94269.94;5142908;27;20193;-71
2022/08/26 05:55:17;;;;;;;15.73;4.85;;;;;;;22.34;63.99;94269.66;5143666;27;20184;-69
2022/08/26 05:57:45;;;;;;;18.27;5.15;;;;;;;22.35;63.87;94273.97;5146981;27;20274;-70
2022/08/26 06:00:14;;;;;;;14.48;4.15;;;;;;;21.94;64.23;94274.75;5144387;27;20663;-71
2022/08/26 06:02:41;;;;;;;25.52;5.35;;;;;;;22.17;65.01;94276.13;5145110;27;20205;-70
2022/08/26 06:05:08;;;;;;;20.20;4.28;;;;;;;22.26;64.41;94285.50;5147424;27;20200;-70
2022/08/26 06:10:21;;;;;;;14.43;3.45;;;;;;;22.33;64.00;94279.13;5146909;27;20183;-70
2022/08/26 06:12:48;;;;;;;17.40;4.22;;;;;;;22.24;63.52;94287.13;5141267;27;20229;-71
2022/08/26 06:15:15;;;;;;;16.85;4.03;;;;;;;22.49;62.99;94282.09;5151429;27;20193;-71
2022/08/26 06:17:42;;;;;;;13.15;4.40;;;;;;;22.40;62.75;94278.28;5139290;27;20196;-71
2022/08/26 06:20:10;;;;;;;11.93;3.78;;;;;;;22.29;64.53;94289.41;5143957;27;20817;-69
2022/08/26 06:25:40;;;;;;;13.32;4.40;;;;;;;22.52;63.50;94286.03;5148899;27;20195;-70
2022/08/26 06:28:08;;;;;;;16.50;4.68;;;;;;;22.55;62.62;94291.47;5139273;27;20338;-69
2022/08/26 06:30:39;;;;;;;15.85;4.82;;;;;;;22.66;63.35;94285.84;5139294;27;20197;-70
2022/08/26 06:33:06;;;;;;;14.55;4.50;;;;;;;22.68;61.88;94284.25;5134729;27;20198;-69
2022/08/26 06:35:37;;;;;;;21.90;5.28;;;;;;;22.66;60.79;94292.16;5134029;27;20721;-69
2022/08/26 06:38:04;;;;;;;17.95;3.95;;;;;;;22.94;61.58;94291.03;5134786;27;20648;-71
2022/08/26 06:40:32;;;;;;;15.77;4.13;;;;;;;23.35;60.94;94299.16;5134231;27;20672;-69
2022/08/26 06:43:00;;;;;;;12.05;3.45;;;;;;;23.62;60.10;94306.69;5134740;27;20193;-70
2022/08/26 06:45:26;;;;;;;16.52;3.97;;;;;;;23.88;59.81;94291.25;5153461;27;20287;-70
2022/08/26 06:47:53;;;;;;;11.20;3.80;;;;;;;23.66;60.14;94301.88;5148228;27;20284;-70
2022/08/26 06:50:20;;;;;;;16.08;4.97;;;;;;;23.66;60.78;94296.34;5138385;27;20201;-69
2022/08/26 06:52:47;;;;;;;13.27;4.03;;;;;;;23.76;59.90;94292.63;5134710;27;20250;-69
2022/08/26 06:55:14;;;;;;;14.63;4.68;;;;;;;23.96;60.28;94292.69;5154832;27;20245;-68
2022/08/26 06:57:42;;;;;;;14.40;5.15;;;;;;;24.21;59.77;94297.78;5153833;27;20228;-69
2022/08/26 07:00:10;;;;;;;17.90;4.65;;;;;;;24.35;58.62;94297.56;5154619;27;20196;-70
2022/08/26 07:02:37;;;;;;;11.65;4.30;;;;;;;24.35;59.05;94292.00;5151254;27;20193;-71
2022/08/26 07:05:05;;;;;;;23.17;5.00;;;;;;;24.24;57.35;94292.22;5153271;27;20196;-70
2022/08/26 07:07:31;;;;;;;18.17;4.60;;;;;;;24.31;58.46;94291.31;5139330;27;20659;-70
2022/08/26 07:09:58;;;;;;;19.98;4.40;;;;;;;24.50;57.32;94293.31;5152819;27;20213;-70
2022/08/26 07:12:25;;;;;;;20.20;4.80;;;;;;;24.48;58.01;94301.25;5149003;27;20232;-70
2022/08/26 07:14:54;;;;;;;21.77;4.85;;;;;;;24.77;58.16;94295.94;5142697;27;20210;-70
2022/08/26 07:17:21;;;;;;;22.48;4.82;;;;;;;25.32;56.64;94295.19;5150764;27;20667;-70
2022/08/26 07:19:48;;;;;;;21.45;4.68;;;;;;;25.37;54.11;94296.69;5152137;27;20208;-69
2022/08/26 07:22:15;;;;;;;11.70;4.30;;;;;;;25.59;53.64;94299.75;5137077;27;20303;-70
2022/08/26 07:24:42;;;;;;;21.83;4.80;;;;;;;25.95;53.90;94294.94;5135226;27;20193;-70
2022/08/26 07:27:11;;;;;;;13.55;4.60;;;;;;;26.02;53.49;94299.53;5136585;27;20570;-70
2022/08/26 07:29:39;;;;;;;16.00;4.45;;;;;;;26.27;53.68;94291.34;5134646;27;20225;-69
2022/08/26 07:32:08;;;;;;;19.55;4.78;;;;;;;26.35;53.19;94294.75;5135075;27;20261;-71
2022/08/26 07:34:37;;;;;;;18.75;4.53;;;;;;;26.25;51.53;94301.31;5148928;27;20207;-71
2022/08/26 07:37:05;;;;;;;18.25;5.43;;;;;;;26.28;52.79;94294.91;5142154;27;20624;-71
2022/08/26 07:39:32;;;;;;;15.32;4.57;;;;;;;26.36;52.71;94296.31;5136999;27;20214;-71
2022/08/26 07:41:59;;;;;;;18.20;4.90;;;;;;;26.47;52.42;94291.25;5141821;27;20192;-70
2022/08/26 07:44:26;;;;;;;24.85;5.20;;;;;;;26.05;52.39;94299.44;5142528;27;20211;-70
2022/08/26 07:46:53;;;;;;;21.85;5.00;;;;;;;26.38;51.76;94299.41;5138548;27;20254;-69
2022/08/26 07:49:22;;;;;;;15.30;5.05;;;;;;;26.57;53.39;94290.19;5144070;27;20655;-70
2022/08/26 07:51:50;;;;;;;20.95;5.93;;;;;;;26.12;52.42;94309.56;5141127;27;20209;-69
2022/08/26 07:54:18;;;;;;;18.05;4.88;;;;;;;26.45;50.57;94299.25;5138213;27;20609;-69
2022/08/26 07:56:45;;;;;;;17.88;5.03;;;;;;;26.34;51.04;94301.53;5140384;27;20217;-70
2022/08/26 07:59:11;;;;;;;19.38;4.72;;;;;;;26.92;48.00;94287.63;5138451;27;20655;-71
2022/08/26 08:01:39;;;;;;;13.93;4.75;;;;;;;27.18;47.77;94294.84;5135968;27;20193;-71
2022/08/26 08:04:06;;;;;;;18.83;5.13;;;;;;;27.06;48.23;94303.94;5141822;27;20287;-69
2022/08/26 08:06:35;;;;;;;15.50;4.78;;;;;;;28.30;45.93;94291.69;5137054;27;20209;-70
2022/08/26 08:09:01;;;;;;;17.10;4.70;;;;;;;28.56;45.69;94303.56;5138088;27;20281;-69
2022/08/26 08:11:29;;;;;;;16.13;4.50;;;;;;;29.12;44.74;94291.59;5138893;27;20236;-70
2022/08/26 08:13:59;;;;;;;15.93;4.93;;;;;;;28.81;44.38;94294.34;5145253;27;20188;-70
2022/08/26 08:16:27;;;;;;;16.90;4.57;;;;;;;29.18;44.87;94289.78;5137170;27;20208;-70
2022/08/26 08:18:55;;;;;;;23.60;5.10;;;;;;;29.09;44.70;94292.53;5139886;27;20196;-70
2022/08/26 08:21:22;;;;;;;18.50;4.25;;;;;;;28.75;44.73;94296.13;5137469;27;20197;-70
2022/08/26 08:23:52;;;;;;;24.95;4.72;;;;;;;27.90;45.88;94296.97;5135767;27;20200;-72
2022/08/26 08:26:19;;;;;;;25.90;4.95;;;;;;;28.50;44.95;94294.22;5136580;27;20204;-71
2022/08/26 08:28:46;;;;;;;16.25;4.88;;;;;;;28.42;45.36;94290.13;5140262;27;20236;-70
2022/08/26 08:31:20;;;;;;;21.45;4.68;;;;;;;28.82;43.81;94293.13;5135965;27;20705;-71
2022/08/26 08:33:47;;;;;;;18.65;5.07;;;;;;;29.17;43.80;94296.59;5146145;27;20188;-70
2022/08/26 08:36:15;;;;;;;13.23;4.10;;;;;;;29.70;43.78;94291.78;5138844;27;20616;-71
2022/08/26 08:38:43;;;;;;;16.13;4.50;;;;;;;29.77;42.07;94293.53;5138190;27;20655;-70
2022/08/26 08:41:27;;;;;;;17.95;4.55;;;;;;;29.69;42.27;94288.22;5140863;27;20205;-70
2022/08/26 08:43:55;;;;;;;19.65;4.22;;;;;;;29.92;42.27;94286.13;5136155;27;20197;-70
2022/08/26 08:46:23;;;;;;;15.85;4.22;;;;;;;29.95;42.24;94285.97;5134035;27;20232;-71
2022/08/26 08:48:57;;;;;;;14.15;4.68;;;;;;;29.85;40.40;94281.59;5140144;27;20224;-71
2022/08/26 08:51:32;;;;;;;11.60;4.35;;;;;;;29.66;41.57;94283.53;5136216;27;20230;-70
2022/08/26 08:54:01;;;;;;;21.52;5.15;;;;;;;29.78;41.46;94275.53;5140287;27;20661;-71
2022/08/26 08:56:32;;;;;;;20.40;4.25;;;;;;;29.10;42.46;94278.13;5137116;27;20293;-70
2022/08/26 08:59:09;;;;;;;17.85;4.70;;;;;;;28.63;40.85;94281.78;5136825;27;20196;-71
2022/08/26 09:02:02;;;;;;;16.65;4.18;;;;;;;28.51;39.96;94273.47;5136876;27;20196;-70
2022/08/26 09:04:51;;;;;;;17.15;3.80;;;;;;;29.01;38.57;94272.47;5150637;27;20646;-70
2022/08/26 09:07:20;;;;;;;19.10;3.90;;;;;;;29.24;40.06;94271.22;5132648;27;20290;-71
2022/08/26 09:09:51;;;;;;;22.73;4.20;;;;;;;28.13;41.72;94274.34;5132811;27;20237;-70
2022/08/26 09:12:23;;;;;;;11.90;3.90;;;;;;;28.34;40.94;94266.50;5131654;27;20699;-71
2022/08/26 09:14:53;;;;;;;9.93;3.88;;;;;;;28.83;39.86;94272.38;5145144;27;20200;-71
2022/08/26 09:17:32;;;;;;;25.13;4.38;;;;;;;28.42;39.12;94267.84;5131260;27;20236;-71
2022/08/26 09:20:08;;;;;;;12.32;4.28;;;;;;;29.06;38.57;94263.53;5133130;27;20273;-71
2022/08/26 09:22:38;;;;;;;14.90;4.43;;;;;;;28.90;40.75;94264.50;5143659;27;20553;-71
2022/08/26 09:25:08;;;;;;;18.30;4.97;;;;;;;27.93;44.17;94265.47;5151140;27;20200;-70
2022/08/26 09:27:45;;;;;;;14.63;4.10;;;;;;;27.72;42.61;94268.97;5149447;27;20200;-71
2022/08/26 09:30:17;;;;;;;11.07;4.35;;;;;;;28.44;41.72;94265.34;5151203;27;20223;-71
2022/08/26 09:32:58;;;;;;;12.52;4.00;;;;;;;28.49;40.16;94256.41;5143797;27;20245;-71
2022/08/26 09:35:29;;;;;;;12.43;4.00;;;;;;;29.34;40.80;94253.28;5139226;27;20250;-70
2022/08/26 09:37:57;;;;;;;15.40;4.75;;;;;;;29.27;38.78;94264.72;5143240;27;20655;-70
2022/08/26 09:40:30;;;;;;;13.20;4.55;;;;;;;29.76;36.21;94258.44;5137036;27;20284;-71
2022/08/26 09:43:18;;;;;;;11.07;4.13;;;;;;;29.82;35.29;94256.59;5139167;27;20193;-71
2022/08/26 09:45:47;;;;;;;15.60;4.88;;;;;;;30.17;34.97;94262.78;5142279;27;20197;-72
2022/08/26 09:48:27;;;;;;;16.80;4.88;;;;;;;29.43;34.62;94253.34;5132286;27;20254;-71
2022/08/26 09:50:55;;;;;;;11.05;4.68;;;;;;;29.23;32.26;94261.31;5132080;27;20679;-71
2022/08/26 09:53:24;;;;;;;14.20;4.93;;;;;;;29.68;33.04;94257.94;5136877;27;20200;-70
2022/08/26 09:55:53;;;;;;;10.18;5.20;;;;;;;29.99;32.96;94250.31;5138553;27;20261;-70
2022/08/26 09:58:36;;;;;;;14.02;4.68;;;;;;;30.16;32.67;94250.81;5144252;27;20653;-71
2022/08/26 10:01:07;;;;;;;9.20;4.53;;;;;;;29.04;34.43;94262.41;5137254;27;20197;-72
2022/08/26 10:03:36;;;;;;;14.32;4.78;;;;;;;29.67;33.41;94243.19;5145041;27;20260;-71
2022/08/26 10:06:06;;;;;;;14.82;5.15;;;;;;;30.24;33.45;94235.28;5132916;27;20201;-71
2022/08/26 10:08:36;;;;;;;8.60;4.57;;;;;;;29.86;32.10;94248.84;5132635;27;20575;-71
2022/08/26 10:11:11;;;;;;;14.95;4.97;;;;;;;30.03;33.95;94241.78;5147765;27;20204;-71
2022/08/26 10:13:43;;;;;;;16.77;5.30;;;;;;;29.40;32.92;94245.09;5141764;27;20710;-71
2022/08/26 10:16:17;;;;;;;15.75;5.47;;;;;;;29.35;33.12;94238.09;5149087;27;20235;-72
2022/08/26 10:18:50;;;;;;;10.88;5.20;;;;;;;30.13;34.49;94232.19;5145120;27;20229;-71
2022/08/26 10:21:23;;;;;;;20.95;5.47;;;;;;;30.28;33.60;94237.94;5132596;27;20221;-70
2022/08/26 10:23:55;;;;;;;9.73;5.10;;;;;;;29.73;33.10;94239.81;5136657;27;20200;-71
2022/08/26 10:26:27;;;;;;;10.50;4.82;;;;;;;28.85;34.58;94239.97;5147973;27;20193;-70
2022/08/26 10:29:05;;;;;;;12.73;5.22;;;;;;;28.64;35.67;94240.75;5151355;27;20224;-72
2022/08/26 10:31:38;;;;;;;12.63;4.85;;;;;;;28.45;35.30;94245.38;5150339;27;20547;-71
2022/08/26 10:34:05;;;;;;;11.57;5.50;;;;;;;29.02;33.25;94231.41;5154648;27;20189;-71
2022/08/26 10:36:51;;;;;;;10.93;5.95;;;;;;;28.89;34.78;94237.84;5136172;27;20201;-71
2022/08/26 10:39:25;;;;;;;19.35;6.13;;;;;;;28.29;34.64;94243.53;5134147;27;20201;-71
2022/08/26 10:41:57;;;;;;;16.25;6.60;;;;;;;28.07;35.29;94237.13;5134588;27;20400;-71
2022/08/26 10:44:27;;;;;;;11.32;6.05;;;;;;;28.89;35.83;94229.47;5133674;27;20197;-71
2022/08/26 10:47:00;;;;;;;13.25;5.72;;;;;;;29.07;34.49;94241.97;5134426;27;20915;-70
2022/08/26 10:49:27;;;;;;;15.38;6.15;;;;;;;29.54;34.06;94234.16;5135355;27;20213;-71
2022/08/26 10:52:01;;;;;;;15.65;6.45;;;;;;;29.63;34.27;94225.84;5133988;27;20205;-71
2022/08/26 10:54:38;;;;;;;14.27;5.72;;;;;;;29.99;32.59;94224.41;5138399;27;20249;-71
2022/08/26 10:57:12;;;;;;;15.60;5.93;;;;;;;30.12;33.40;94222.25;5153709;27;20247;-72
2022/08/26 10:59:50;;;;;;;13.95;6.05;;;;;;;29.67;34.28;94220.88;5146634;27;20276;-71
2022/08/26 11:02:25;;;;;;;13.65;5.18;;;;;;;29.14;33.29;94222.16;5134258;27;20262;-72
2022/08/26 11:04:56;;;;;;;15.52;5.90;;;;;;;28.96;34.57;94223.66;5147367;27;20188;-71
2022/08/26 11:07:45;;;;;;;13.43;5.72;;;;;;;28.89;34.84;94223.91;5144554;27;20596;-71
2022/08/26 11:10:57;;;;;;;14.45;5.38;;;;;;;28.28;34.95;94236.44;5138429;27;20213;-71
2022/08/26 11:13:59;;;;;;;15.35;5.93;;;;;;;28.06;34.07;94223.66;5083071;27;20725;-71
2022/08/26 11:16:37;;;;;;;18.58;6.90;;;;;;;28.24;33.98;94223.84;5137788;27;20299;-70
2022/08/26 11:19:04;;;;;;;11.82;5.93;;;;;;;28.15;34.67;94226.53;5144056;27;20200;-71
2022/08/26 11:21:50;;;;;;;16.42;6.10;;;;;;;28.12;34.85;94228.22;5148854;27;20682;-72
2022/08/26 11:24:54;;;;;;;17.05;6.25;;;;;;;28.16;34.94;94217.72;5147388;27;20280;-71
2022/08/26 11:28:02;;;;;;;11.65;6.13;;;;;;;28.29;33.89;94221.25;5145391;27;20196;-74
2022/08/26 11:30:42;;;;;;;18.30;5.85;;;;;;;27.84;34.51;94212.47;5132721;27;20331;-70
2022/08/26 11:33:31;;;;;;;10.98;6.07;;;;;;;28.23;36.28;94217.50;5146920;27;20660;-70
2022/08/26 11:35:58;;;;;;;9.85;5.43;;;;;;;28.44;34.72;94212.41;5140377;27;20273;-70
2022/08/26 11:38:28;;;;;;;13.23;5.70;;;;;;;28.11;33.78;94203.59;5147931;27;20249;-76
2022/08/26 11:40:59;;;;;;;10.32;5.20;;;;;;;28.31;34.70;94198.53;5151083;27;20196;-72
2022/08/26 11:43:28;;;;;;;9.30;4.65;;;;;;;28.35;34.42;94207.53;5147760;27;20645;-70
2022/08/26 11:46:02;;;;;;;12.93;5.65;;;;;;;28.23;35.61;94206.38;5147988;27;20208;-70
2022/08/26 11:48:33;;;;;;;14.13;5.35;;;;;;;28.41;34.74;94199.38;5137990;27;20189;-70